Accueil
METAR-TAF:

METAR-TAF

Aéroports :

Aéroport de Bari

Bari, Italie

latitude: 41-08N, longitude: 016-47E, altitude: 34 m

Observation

Le bulletin a été fait il y a 19 minutes, à 08:20 UTC
Vent 6 kt de sud-est
Température 12°C
Humidité 76%
Pression 1009 hPa
Visibilité 10 km ou plus
pas de nuages en-dessous de 1500 mètres et pas de cumulonimbus.

METAR: LIBD 050820Z 13006KT CAVOK 12/08 Q1009

Heure: 09:39 (08:39 UTC)

Prévision

Le bulletin a été fait il y a 3 heures et 39 minutes, à 05:00 UTC
Prévision valable du 05 à 06 UTC au 06 à 06 UTC
Vent 15 kt de sud/sud-est
Visibilité 10 km ou plus
Nuages épars à une hauteur de 3000 ft

TAF: LIBD 050500Z 0506/0606 16015KT 9999 SCT030

Observations et prévisions météorologiques de plus de 4000 aéroports (messages METAR et TAF).

Les stations disponibles sont représentées par des disques jaunes et rouges sur la carte.

Passer la souris dessus pour voir le nom de la station.

Cliquer dessus pour voir les observations et prévisions météorologiques.

Pour changer de carte: cliquez sur les boutons verts avec une croix noire pour zoomer, sur le bouton vert avec un tiret pour effectuer un zoom arrière, ou sur les flèches vertes pour les cartes adjacentes.


METAR-TAF: